Time;durP1;ratioP1;P1;durP2;ratioP2;P2;SDS_P1;SDS_P2;PMS_P1;PMS_P2;Temp;Humidity;BMP_temperature;BMP_pressure;BME280_temperature;BME280_humidity;BME280_pressure;Samples;Min_cycle;Max_cycle;Signal;HPM_P1;HPM_P2
2020/12/16 00:02:20;;;;;;;8.50;6.40;;;6.60;99.90;;;;;;5085243;28;20292;-76
2020/12/16 00:04:47;;;;;;;7.13;6.10;;;6.60;99.90;;;;;;5082730;28;20208;-75
2020/12/16 00:07:12;;;;;;;9.47;7.90;;;6.60;99.90;;;;;;5084331;28;20466;-76
2020/12/16 00:09:38;;;;;;;11.33;6.57;;;6.60;99.90;;;;;;5081920;28;20463;-75
2020/12/16 00:12:04;;;;;;;8.70;6.90;;;6.60;99.90;;;;;;5081807;28;20198;-75
2020/12/16 00:14:29;;;;;;;7.77;6.30;;;6.50;99.90;;;;;;5084543;28;20211;-75
2020/12/16 00:16:55;;;;;;;7.90;7.10;;;6.50;99.90;;;;;;5081927;28;20179;-75
2020/12/16 00:19:20;;;;;;;11.63;8.90;;;6.60;99.90;;;;;;5085179;28;20236;-76
2020/12/16 00:21:46;;;;;;;9.43;8.23;;;6.60;99.90;;;;;;5081959;28;20256;-76
2020/12/16 00:24:11;;;;;;;11.13;9.10;;;6.60;99.90;;;;;;5083816;28;20200;-76
2020/12/16 00:26:37;;;;;;;11.63;8.43;;;6.60;99.90;;;;;;5083448;28;20197;-76
2020/12/16 00:29:02;;;;;;;11.03;7.80;;;6.60;99.90;;;;;;5082508;28;20210;-75
2020/12/16 00:31:28;;;;;;;9.77;8.27;;;6.50;99.90;;;;;;5084501;28;20710;-76
2020/12/16 00:33:54;;;;;;;10.80;8.77;;;6.50;99.90;;;;;;5081401;28;20183;-76
2020/12/16 00:36:19;;;;;;;9.30;8.03;;;6.50;99.90;;;;;;5083406;28;20171;-75
2020/12/16 00:38:45;;;;;;;7.93;7.13;;;6.50;99.90;;;;;;5082009;28;20618;-76
2020/12/16 00:41:11;;;;;;;11.33;8.17;;;6.50;99.90;;;;;;5082953;28;20203;-75
2020/12/16 00:43:36;;;;;;;9.00;8.10;;;6.40;99.90;;;;;;5082188;28;20944;-76
2020/12/16 00:46:02;;;;;;;8.67;7.77;;;6.40;99.90;;;;;;5082107;28;20483;-75
2020/12/16 00:48:28;;;;;;;14.17;8.93;;;6.40;99.90;;;;;;5083033;28;20195;-76
2020/12/16 00:50:53;;;;;;;9.30;8.40;;;6.40;99.90;;;;;;5080897;28;20202;-76
2020/12/16 00:53:19;;;;;;;13.30;8.80;;;6.40;99.90;;;;;;5084137;28;20186;-76
2020/12/16 00:55:44;;;;;;;10.20;7.77;;;6.40;99.90;;;;;;5080708;28;20584;-75
2020/12/16 00:58:10;;;;;;;9.27;8.00;;;6.40;99.90;;;;;;5082970;28;20697;-75
2020/12/16 01:00:36;;;;;;;15.10;8.27;;;6.40;99.90;;;;;;5083104;28;20564;-75
2020/12/16 01:03:01;;;;;;;7.80;6.87;;;6.40;99.90;;;;;;5081521;28;20189;-76
2020/12/16 01:05:27;;;;;;;11.27;8.40;;;6.40;99.90;;;;;;5084750;28;20528;-76
2020/12/16 01:07:52;;;;;;;8.83;7.93;;;6.40;99.90;;;;;;5079963;28;20207;-76
2020/12/16 01:10:18;;;;;;;7.80;7.10;;;6.40;99.90;;;;;;5083669;28;20222;-75
2020/12/16 01:12:46;;;;;;;10.70;8.47;;;6.40;99.90;;;;;;5081817;28;20181;-75
2020/12/16 01:15:19;;;;;;;10.63;8.70;;;6.40;99.90;;;;;;5082963;28;20504;-76
2020/12/16 01:17:47;;;;;;;10.13;8.70;;;6.40;99.90;;;;;;5081178;28;20918;-76
2020/12/16 01:20:13;;;;;;;10.67;7.67;;;6.50;99.90;;;;;;5082540;28;20428;-75
2020/12/16 01:22:43;;;;;;;13.43;8.30;;;6.50;99.90;;;;;;5082249;28;20416;-75
2020/12/16 01:25:15;;;;;;;9.67;8.47;;;6.50;99.90;;;;;;5082354;28;20189;-76
2020/12/16 01:27:41;;;;;;;8.07;7.27;;;6.50;99.90;;;;;;5081766;28;20427;-76
2020/12/16 01:30:08;;;;;;;11.20;8.40;;;6.60;99.90;;;;;;5081506;28;20478;-75
2020/12/16 01:32:36;;;;;;;21.03;8.00;;;6.60;99.90;;;;;;5082614;28;20228;-75
2020/12/16 01:35:08;;;;;;;7.20;6.50;;;6.60;99.90;;;;;;5081167;28;20424;-76
2020/12/16 01:37:35;;;;;;;10.20;7.43;;;6.70;99.90;;;;;;5082311;28;20436;-75
2020/12/16 01:40:03;;;;;;;8.90;7.57;;;6.70;99.90;;;;;;5080593;28;20428;-75
2020/12/16 01:42:29;;;;;;;10.80;7.87;;;6.70;99.90;;;;;;5083164;28;20934;-75
2020/12/16 01:44:54;;;;;;;12.87;7.67;;;6.70;99.90;;;;;;5080076;28;20421;-75
2020/12/16 01:47:20;;;;;;;9.03;8.10;;;6.80;99.90;;;;;;5083421;28;20182;-75
2020/12/16 01:49:46;;;;;;;8.40;6.97;;;6.80;99.90;;;;;;5080565;28;20212;-74
2020/12/16 01:52:21;;;;;;;7.20;6.50;;;6.80;99.90;;;;;;5082356;28;20199;-76
2020/12/16 01:54:47;;;;;;;8.87;6.60;;;6.80;99.90;;;;;;5080463;28;20540;-75
2020/12/16 01:57:16;;;;;;;8.10;7.30;;;6.90;99.90;;;;;;5081016;28;20737;-76
2020/12/16 01:59:43;;;;;;;8.70;7.50;;;6.90;99.90;;;;;;5080921;28;20428;-75
2020/12/16 02:02:11;;;;;;;10.47;7.93;;;6.90;99.90;;;;;;5081182;28;20448;-75
2020/12/16 02:04:43;;;;;;;9.07;8.13;;;6.90;99.90;;;;;;5081696;28;20506;-76
2020/12/16 02:07:10;;;;;;;8.93;8.07;;;6.90;99.90;;;;;;5081291;28;20905;-75
2020/12/16 02:09:43;;;;;;;9.87;7.50;;;7.00;99.90;;;;;;5081673;28;20460;-75
2020/12/16 02:12:33;;;;;;;14.20;7.30;;;7.00;99.90;;;;;;5079664;28;20442;-75
2020/12/16 02:15:00;;;;;;;8.77;7.67;;;7.00;99.90;;;;;;5080089;28;20911;-75
2020/12/16 02:17:25;;;;;;;8.73;7.20;;;7.00;99.90;;;;;;5083203;28;20413;-76
2020/12/16 02:19:59;;;;;;;9.57;8.23;;;7.00;99.90;;;;;;5079214;28;20486;-75
2020/12/16 02:22:25;;;;;;;8.13;7.33;;;7.00;99.90;;;;;;5078062;28;20551;-76
2020/12/16 02:25:05;;;;;;;8.30;7.47;;;7.00;99.90;;;;;;5083788;28;20416;-75
2020/12/16 02:27:31;;;;;;;10.67;8.20;;;7.00;99.90;;;;;;5079850;28;20417;-75
2020/12/16 02:29:57;;;;;;;10.63;7.57;;;7.00;99.90;;;;;;5082669;28;20471;-75
2020/12/16 02:32:24;;;;;;;9.87;7.37;;;7.00;99.90;;;;;;5078144;28;20437;-76
2020/12/16 02:34:51;;;;;;;8.60;7.40;;;7.10;99.90;;;;;;5082792;28;20416;-75
2020/12/16 02:37:17;;;;;;;11.53;8.27;;;7.00;99.90;;;;;;5080171;28;21828;-76
2020/12/16 02:39:42;;;;;;;12.97;7.70;;;7.00;99.90;;;;;;5081521;28;20508;-76
2020/12/16 02:42:09;;;;;;;9.00;8.10;;;7.00;99.90;;;;;;5081065;28;20432;-75
2020/12/16 02:44:35;;;;;;;9.57;7.47;;;7.00;99.90;;;;;;5080255;28;20184;-75
2020/12/16 02:47:02;;;;;;;12.67;7.13;;;7.00;99.90;;;;;;5082135;28;20430;-75
2020/12/16 02:49:28;;;;;;;9.67;7.23;;;7.10;99.90;;;;;;5079151;28;20934;-75
2020/12/16 02:51:54;;;;;;;9.47;7.20;;;7.00;99.90;;;;;;5082402;28;20425;-75
2020/12/16 02:54:21;;;;;;;9.77;7.80;;;7.10;99.90;;;;;;5079014;28;20191;-75
2020/12/16 02:56:51;;;;;;;9.97;7.40;;;7.10;99.90;;;;;;5080472;28;20467;-75
2020/12/16 02:59:20;;;;;;;7.73;6.97;;;7.10;99.90;;;;;;5079601;28;20550;-76
2020/12/16 03:01:50;;;;;;;8.47;7.57;;;7.20;99.90;;;;;;5081285;28;20441;-75
2020/12/16 03:04:17;;;;;;;11.40;8.00;;;7.20;99.90;;;;;;5079795;28;20467;-76
2020/12/16 03:06:48;;;;;;;10.27;8.00;;;7.20;99.90;;;;;;5080922;28;20424;-76
2020/12/16 03:09:15;;;;;;;11.00;7.77;;;7.20;99.90;;;;;;5079992;28;20560;-76
2020/12/16 03:11:41;;;;;;;9.33;7.60;;;7.20;99.90;;;;;;5080465;28;20464;-75
2020/12/16 03:14:07;;;;;;;10.10;8.07;;;7.20;99.90;;;;;;5081151;28;20951;-75
2020/12/16 03:16:32;;;;;;;9.87;7.73;;;7.20;99.90;;;;;;5079945;28;20830;-75
2020/12/16 03:18:58;;;;;;;8.90;7.70;;;7.20;99.90;;;;;;5082163;28;20183;-75
2020/12/16 03:21:24;;;;;;;11.13;7.80;;;7.20;99.90;;;;;;5077181;28;20668;-76
2020/12/16 03:23:51;;;;;;;8.97;8.07;;;7.10;99.90;;;;;;5081903;28;20705;-75
2020/12/16 03:26:18;;;;;;;9.97;7.40;;;7.20;99.90;;;;;;5079730;28;20762;-76
2020/12/16 03:28:43;;;;;;;11.60;7.80;;;7.10;99.90;;;;;;5080485;28;20985;-76
2020/12/16 03:31:09;;;;;;;7.90;7.10;;;7.20;99.90;;;;;;5080802;28;20546;-76
2020/12/16 03:33:35;;;;;;;9.17;7.60;;;7.20;99.90;;;;;;5083428;28;20171;-75
2020/12/16 03:36:00;;;;;;;11.20;8.70;;;7.20;99.90;;;;;;5085776;28;20425;-75
2020/12/16 03:38:26;;;;;;;9.63;7.77;;;7.20;99.90;;;;;;5082292;28;20174;-75
2020/12/16 03:40:51;;;;;;;9.37;8.37;;;7.30;99.90;;;;;;5085619;28;20311;-75
2020/12/16 03:43:17;;;;;;;13.67;7.37;;;7.20;99.90;;;;;;5082875;28;20195;-75
2020/12/16 03:45:42;;;;;;;8.77;7.67;;;7.20;99.90;;;;;;5083188;28;20178;-75
2020/12/16 03:48:08;;;;;;;9.13;8.10;;;7.20;99.90;;;;;;5084016;28;20190;-76
2020/12/16 03:50:33;;;;;;;9.40;8.30;;;7.30;99.90;;;;;;5082740;28;20197;-76
2020/12/16 03:52:59;;;;;;;9.10;7.90;;;7.20;99.90;;;;;;5085327;28;20200;-76
2020/12/16 03:55:24;;;;;;;11.00;9.03;;;7.30;99.90;;;;;;5082327;28;20180;-76
2020/12/16 03:57:50;;;;;;;10.50;8.60;;;7.30;99.90;;;;;;5085130;28;20202;-76
2020/12/16 04:00:16;;;;;;;12.10;9.07;;;7.30;99.90;;;;;;5082966;28;20614;-75
2020/12/16 04:02:41;;;;;;;11.13;9.80;;;7.30;99.90;;;;;;5084167;28;20309;-76
2020/12/16 04:05:07;;;;;;;14.00;10.20;;;7.40;99.90;;;;;;5084353;28;20202;-76
2020/12/16 04:07:32;;;;;;;12.90;10.20;;;7.40;99.90;;;;;;5082676;28;21023;-75
2020/12/16 04:09:59;;;;;;;12.80;9.50;;;7.50;99.90;;;;;;5085123;28;20219;-74
2020/12/16 04:12:24;;;;;;;13.67;10.73;;;7.50;99.90;;;;;;5081939;28;20182;-75
2020/12/16 04:14:51;;;;;;;18.43;9.43;;;7.50;99.90;;;;;;5084922;28;20786;-76
2020/12/16 04:17:17;;;;;;;12.50;9.20;;;7.50;99.90;;;;;;5082565;28;20547;-75
2020/12/16 04:19:42;;;;;;;12.97;10.60;;;7.40;99.90;;;;;;5083749;28;20790;-76
2020/12/16 04:22:08;;;;;;;12.43;10.37;;;7.50;99.90;;;;;;5083386;28;20437;-75
2020/12/16 04:24:34;;;;;;;12.70;10.60;;;7.40;99.90;;;;;;5082546;28;20183;-76
2020/12/16 04:26:59;;;;;;;13.60;10.87;;;7.40;99.90;;;;;;5084915;28;20196;-76
2020/12/16 04:29:26;;;;;;;11.53;10.33;;;7.40;99.90;;;;;;5081493;28;20201;-76
2020/12/16 04:31:52;;;;;;;13.30;9.33;;;7.40;99.90;;;;;;5084400;28;20208;-75
2020/12/16 04:34:18;;;;;;;12.77;10.27;;;7.30;99.90;;;;;;5080650;28;20690;-76
2020/12/16 04:36:48;;;;;;;14.83;10.53;;;7.30;99.90;;;;;;5083557;28;20437;-76
2020/12/16 04:39:15;;;;;;;12.73;10.13;;;7.20;99.90;;;;;;5082462;28;20170;-76
2020/12/16 04:41:41;;;;;;;13.73;10.37;;;7.20;99.90;;;;;;5082919;28;20437;-76
2020/12/16 04:44:09;;;;;;;11.37;10.17;;;7.20;99.90;;;;;;5083498;28;20428;-76
2020/12/16 04:46:38;;;;;;;14.97;12.33;;;7.10;99.90;;;;;;5082419;28;20175;-75
2020/12/16 04:49:05;;;;;;;13.20;10.50;;;7.10;99.90;;;;;;5083618;28;20502;-75
2020/12/16 04:51:33;;;;;;;15.50;11.53;;;7.00;99.90;;;;;;5081370;28;20471;-76
2020/12/16 04:54:00;;;;;;;13.30;11.10;;;6.90;99.90;;;;;;5084122;28;20421;-75
2020/12/16 04:56:26;;;;;;;11.27;10.10;;;6.90;99.90;;;;;;5081207;28;20886;-75
2020/12/16 04:58:53;;;;;;;11.53;10.20;;;6.80;99.90;;;;;;5084289;28;20532;-76
2020/12/16 05:01:18;;;;;;;9.97;9.03;;;6.70;99.90;;;;;;5080074;28;20351;-75
2020/12/16 05:03:44;;;;;;;17.77;10.60;;;6.80;99.90;;;;;;5083130;28;20516;-75
2020/12/16 05:06:09;;;;;;;11.80;10.60;;;6.70;99.90;;;;;;5082650;28;20271;-76
2020/12/16 05:08:35;;;;;;;15.70;10.87;;;6.70;99.90;;;;;;5084861;28;20203;-75
2020/12/16 05:11:00;;;;;;;13.77;11.33;;;6.60;99.90;;;;;;5080836;28;20202;-76
2020/12/16 05:13:26;;;;;;;12.57;11.27;;;6.50;99.90;;;;;;5082993;28;20672;-76
2020/12/16 05:15:54;;;;;;;15.90;11.93;;;6.50;99.90;;;;;;5080546;28;20183;-75
2020/12/16 05:18:21;;;;;;;18.20;11.27;;;6.50;99.90;;;;;;5083545;28;20435;-75
2020/12/16 05:20:50;;;;;;;13.93;11.27;;;6.40;99.90;;;;;;5080672;28;20447;-75
2020/12/16 05:23:16;;;;;;;13.00;10.73;;;6.40;99.90;;;;;;5082916;28;20441;-75
2020/12/16 05:25:59;;;;;;;20.07;14.80;;;6.40;99.90;;;;;;5081817;28;20426;-75
2020/12/16 05:28:26;;;;;;;21.07;14.57;;;6.40;99.90;;;;;;5080616;28;20461;-75
2020/12/16 05:30:55;;;;;;;23.10;15.10;;;6.40;99.90;;;;;;5083601;28;20829;-75
2020/12/16 05:33:21;;;;;;;17.80;14.30;;;6.50;99.90;;;;;;5080524;28;20436;-76
2020/12/16 05:35:50;;;;;;;20.27;15.37;;;6.50;99.90;;;;;;5083196;28;20985;-76
2020/12/16 05:38:16;;;;;;;18.37;14.57;;;6.60;99.90;;;;;;5081111;28;20253;-75
2020/12/16 05:40:41;;;;;;;20.80;15.10;;;6.60;99.90;;;;;;5081695;28;20440;-74
2020/12/16 05:43:07;;;;;;;20.70;15.00;;;6.50;99.90;;;;;;5082179;28;20678;-75
2020/12/16 05:45:39;;;;;;;17.73;14.80;;;6.50;99.90;;;;;;5080837;28;20557;-76
2020/12/16 05:48:12;;;;;;;18.03;13.77;;;6.60;99.90;;;;;;5081068;28;20429;-75
2020/12/16 05:50:45;;;;;;;18.40;14.23;;;6.50;99.90;;;;;;5081037;28;20479;-75
2020/12/16 05:53:22;;;;;;;24.53;15.53;;;6.50;99.90;;;;;;5082150;28;20842;-75
2020/12/16 05:55:52;;;;;;;17.70;13.30;;;6.50;99.90;;;;;;5081718;28;20431;-75
2020/12/16 05:58:19;;;;;;;16.83;13.83;;;6.50;99.90;;;;;;5080550;28;20423;-76
2020/12/16 06:00:49;;;;;;;15.13;12.80;;;6.50;99.90;;;;;;5081134;28;20440;-75
2020/12/16 06:03:23;;;;;;;14.00;12.50;;;6.50;99.90;;;;;;5080791;28;20397;-76
2020/12/16 06:05:58;;;;;;;15.60;13.10;;;6.60;99.90;;;;;;5082432;28;20435;-76
2020/12/16 06:08:26;;;;;;;19.27;12.70;;;6.60;99.90;;;;;;5079788;28;20823;-75
2020/12/16 06:10:52;;;;;;;14.07;12.77;;;6.50;99.90;;;;;;5082612;28;20498;-75
2020/12/16 06:13:19;;;;;;;14.20;12.17;;;6.50;99.90;;;;;;5080236;28;20423;-75
2020/12/16 06:15:54;;;;;;;17.63;13.17;;;6.50;99.90;;;;;;5081661;28;20179;-75
2020/12/16 06:18:41;;;;;;;18.23;14.40;;;6.50;99.90;;;;;;5079739;28;20999;-75
2020/12/16 06:21:08;;;;;;;17.80;14.17;;;6.50;99.90;;;;;;5080453;28;20464;-75
2020/12/16 06:23:37;;;;;;;17.70;12.60;;;6.60;99.90;;;;;;5081736;28;20429;-76
2020/12/16 06:26:05;;;;;;;18.40;11.53;;;6.50;99.90;;;;;;5078794;28;20438;-76
2020/12/16 06:28:31;;;;;;;19.03;13.73;;;6.50;99.90;;;;;;5082000;28;20657;-75
2020/12/16 06:31:31;;;;;;;17.27;14.03;;;6.50;99.90;;;;;;5079089;28;20436;-73
2020/12/16 06:34:11;;;;;;;15.27;12.50;;;6.60;99.90;;;;;;5058586;28;20182;-74
2020/12/16 06:36:42;;;;;;;16.10;12.97;;;6.60;99.90;;;;;;5085893;28;20788;-73
2020/12/16 06:39:18;;;;;;;22.63;13.43;;;6.60;99.90;;;;;;5089062;28;21032;-73
2020/12/16 06:41:58;;;;;;;16.97;12.97;;;6.60;99.90;;;;;;5082878;28;20472;-73
2020/12/16 06:44:26;;;;;;;22.23;13.10;;;6.60;99.90;;;;;;5078107;28;20513;-73
2020/12/16 06:46:55;;;;;;;16.70;12.77;;;6.50;99.90;;;;;;5083243;28;20419;-73
2020/12/16 06:49:24;;;;;;;16.43;13.00;;;6.50;99.90;;;;;;5082085;28;20522;-73
2020/12/16 06:52:03;;;;;;;19.20;13.83;;;6.50;99.90;;;;;;5082780;28;20491;-74
2020/12/16 06:54:36;;;;;;;17.67;13.47;;;6.50;99.90;;;;;;5078908;28;20425;-74
2020/12/16 06:57:14;;;;;;;17.70;13.03;;;6.40;99.90;;;;;;5082093;28;20835;-74
2020/12/16 06:59:51;;;;;;;18.77;14.07;;;6.40;99.90;;;;;;5080325;28;20564;-74
2020/12/16 07:02:31;;;;;;;22.83;14.40;;;6.30;99.90;;;;;;5079690;28;20469;-74
2020/12/16 07:04:58;;;;;;;21.73;14.50;;;6.30;99.90;;;;;;5082959;28;20452;-73
2020/12/16 07:07:43;;;;;;;24.87;15.73;;;6.30;99.90;;;;;;5082605;28;20426;-74
2020/12/16 07:10:33;;;;;;;21.67;14.50;;;6.30;99.90;;;;;;5084512;28;20460;-74
2020/12/16 07:13:12;;;;;;;22.20;13.27;;;6.40;99.90;;;;;;5081531;28;20610;-74
2020/12/16 07:15:51;;;;;;;18.70;12.53;;;6.30;99.90;;;;;;5085273;28;20410;-74
2020/12/16 07:18:28;;;;;;;20.83;12.53;;;6.30;99.90;;;;;;5084020;28;20426;-73
2020/12/16 07:21:16;;;;;;;16.13;12.53;;;6.30;99.90;;;;;;5081269;28;20448;-73
2020/12/16 07:23:55;;;;;;;16.60;11.00;;;6.30;99.90;;;;;;5085260;28;20394;-73
2020/12/16 07:26:43;;;;;;;15.37;11.77;;;6.30;99.90;;;;;;5083108;28;20931;-73
2020/12/16 07:29:26;;;;;;;16.03;11.40;;;6.30;99.90;;;;;;5083919;28;20463;-74
2020/12/16 07:31:53;;;;;;;13.17;11.57;;;6.20;99.90;;;;;;5082370;28;20433;-74
2020/12/16 07:34:18;;;;;;;17.27;13.10;;;6.30;99.90;;;;;;5085227;28;20451;-74
2020/12/16 07:36:45;;;;;;;18.63;10.90;;;6.30;99.90;;;;;;5085897;28;20430;-74
2020/12/16 07:39:11;;;;;;;14.87;12.73;;;6.30;99.90;;;;;;5086841;28;20660;-73
2020/12/16 07:41:38;;;;;;;13.57;12.10;;;6.30;99.90;;;;;;5086310;28;20547;-74
2020/12/16 07:44:03;;;;;;;16.07;11.70;;;6.30;99.90;;;;;;5085920;28;20273;-74
2020/12/16 07:46:29;;;;;;;15.77;11.57;;;6.30;99.90;;;;;;5085747;28;20842;-71
2020/12/16 07:48:54;;;;;;;18.37;12.70;;;6.30;99.90;;;;;;5082091;28;20283;-74
2020/12/16 07:51:20;;;;;;;17.97;12.27;;;6.30;99.90;;;;;;5084913;28;20202;-73
2020/12/16 07:53:49;;;;;;;27.03;16.20;;;6.30;99.90;;;;;;5082289;28;20221;-73
2020/12/16 07:56:18;;;;;;;24.77;15.50;;;6.30;99.90;;;;;;5083126;28;20418;-73
2020/12/16 07:58:43;;;;;;;21.70;15.17;;;6.30;99.90;;;;;;5080661;28;20525;-73
2020/12/16 08:01:11;;;;;;;21.27;12.57;;;6.30;99.90;;;;;;5082114;28;20497;-73
2020/12/16 08:03:38;;;;;;;18.60;13.20;;;6.40;99.90;;;;;;5082875;28;20179;-74
2020/12/16 08:06:04;;;;;;;18.30;13.60;;;6.40;99.90;;;;;;5081661;28;20423;-74
2020/12/16 08:08:30;;;;;;;20.00;13.67;;;6.30;99.90;;;;;;5083809;28;20486;-74
2020/12/16 08:10:56;;;;;;;20.37;14.60;;;6.40;99.90;;;;;;5083760;28;20528;-75
2020/12/16 08:13:24;;;;;;;17.97;13.80;;;6.40;99.90;;;;;;5080716;28;20264;-73
2020/12/16 08:15:49;;;;;;;12.93;10.77;;;6.40;99.90;;;;;;5083604;28;20186;-73
2020/12/16 08:18:16;;;;;;;15.83;12.33;;;6.50;99.90;;;;;;5081104;28;20414;-74
2020/12/16 08:20:43;;;;;;;17.40;12.20;;;6.60;99.90;;;;;;5082123;28;20436;-73
2020/12/16 08:23:13;;;;;;;14.07;12.10;;;6.50;99.90;;;;;;5082452;28;20456;-73
2020/12/16 08:25:38;;;;;;;15.10;11.20;;;6.50;99.90;;;;;;5080525;28;20500;-73
2020/12/16 08:28:07;;;;;;;18.47;11.63;;;6.60;99.90;;;;;;5081021;28;20519;-73
2020/12/16 08:30:35;;;;;;;17.07;11.00;;;6.60;99.90;;;;;;5081499;28;20678;-73
2020/12/16 08:33:03;;;;;;;17.00;11.40;;;6.70;99.90;;;;;;5080848;28;20412;-73
2020/12/16 08:35:58;;;;;;;17.73;12.30;;;6.80;99.90;;;;;;5083615;28;20421;-73
2020/12/16 08:38:33;;;;;;;18.73;13.03;;;6.90;99.90;;;;;;5080030;28;20424;-74
2020/12/16 08:41:00;;;;;;;17.27;11.43;;;7.00;99.90;;;;;;5079905;28;20446;-73
2020/12/16 08:43:29;;;;;;;20.13;12.63;;;7.10;99.90;;;;;;5083610;28;20401;-74
2020/12/16 08:46:03;;;;;;;14.67;11.90;;;7.20;99.90;;;;;;5080141;28;20904;-74
2020/12/16 08:48:37;;;;;;;12.40;10.23;;;7.30;99.90;;;;;;5080015;28;20508;-73
2020/12/16 08:51:06;;;;;;;14.97;10.57;;;7.40;99.90;;;;;;5082772;28;20429;-73
2020/12/16 08:53:54;;;;;;;11.83;9.60;;;7.40;99.90;;;;;;5062172;28;533625;-72
2020/12/16 08:56:41;;;;;;;12.30;10.60;;;7.50;99.90;;;;;;5081571;28;20981;-73
2020/12/16 08:59:15;;;;;;;12.03;9.80;;;7.60;99.90;;;;;;5081189;28;20458;-74
2020/12/16 09:01:46;;;;;;;15.30;10.07;;;7.80;99.90;;;;;;5081436;28;20940;-73
2020/12/16 09:04:22;;;;;;;13.10;9.43;;;7.90;99.90;;;;;;5080607;28;20433;-73
2020/12/16 09:07:00;;;;;;;11.03;7.97;;;8.10;99.90;;;;;;5080368;28;20520;-75
2020/12/16 09:09:26;;;;;;;9.03;8.13;;;8.20;99.90;;;;;;5080544;28;20473;-74
2020/12/16 09:11:51;;;;;;;10.13;7.30;;;8.40;99.90;;;;;;5083623;28;20444;-74
2020/12/16 09:14:18;;;;;;;10.03;7.40;;;8.70;99.90;;;;;;5081716;28;20739;-74
2020/12/16 09:16:44;;;;;;;10.40;6.87;;;9.00;99.90;;;;;;5082773;28;20522;-75
2020/12/16 09:19:36;;;;;;;9.53;7.10;;;9.20;99.90;;;;;;5079788;28;20425;-73
2020/12/16 09:22:02;;;;;;;7.67;6.87;;;10.10;99.90;;;;;;5078730;28;20717;-73
2020/12/16 09:24:28;;;;;;;8.20;6.30;;;10.90;99.90;;;;;;5084064;28;20515;-74
2020/12/16 09:26:55;;;;;;;9.53;6.97;;;11.70;99.90;;;;;;5080520;28;20450;-74
2020/12/16 09:29:22;;;;;;;9.13;6.20;;;12.20;99.90;;;;;;5082701;28;20499;-74
2020/12/16 09:31:49;;;;;;;5.47;4.97;;;13.00;99.90;;;;;;5080822;28;20441;-74
2020/12/16 09:34:15;;;;;;;4.70;4.27;;;13.40;99.90;;;;;;5082719;28;20438;-75
2020/12/16 09:36:41;;;;;;;4.40;4.00;;;13.20;99.90;;;;;;5082355;28;20418;-74
2020/12/16 09:39:07;;;;;;;6.63;4.93;;;12.80;99.90;;;;;;5081405;28;20435;-74
2020/12/16 09:41:50;;;;;;;5.87;4.47;;;12.20;99.90;;;;;;5082435;28;20441;-74
2020/12/16 09:44:27;;;;;;;4.23;3.73;;;11.70;99.90;;;;;;5082564;28;20465;-74
2020/12/16 09:46:53;;;;;;;5.57;3.90;;;11.70;99.90;;;;;;5080043;28;20488;-74
2020/12/16 09:49:20;;;;;;;4.60;4.20;;;11.50;99.90;;;;;;5082775;28;20491;-74
2020/12/16 09:51:45;;;;;;;4.87;4.00;;;11.30;99.90;;;;;;5080851;28;20441;-74
2020/12/16 09:54:26;;;;;;;5.53;5.00;;;11.30;99.90;;;;;;5081689;28;20932;-74
2020/12/16 09:56:52;;;;;;;4.27;3.87;;;11.50;99.90;;;;;;5080092;28;20426;-74
2020/12/16 09:59:18;;;;;;;5.10;4.40;;;11.70;99.90;;;;;;5082423;28;20529;-74
2020/12/16 10:01:44;;;;;;;6.60;5.23;;;12.10;99.90;;;;;;5080845;28;20203;-73
2020/12/16 10:04:09;;;;;;;6.93;6.07;;;12.40;99.90;;;;;;5079919;28;20449;-73
2020/12/16 10:06:35;;;;;;;7.93;7.23;;;12.60;99.90;;;;;;5080996;28;20187;-73
2020/12/16 10:09:00;;;;;;;9.40;5.83;;;12.80;99.90;;;;;;5080036;28;20212;-73
2020/12/16 10:11:26;;;;;;;8.47;6.70;;;13.10;99.90;;;;;;5083014;28;20200;-73
2020/12/16 10:13:51;;;;;;;9.07;6.90;;;13.10;99.90;;;;;;5079643;28;20274;-73
2020/12/16 10:16:17;;;;;;;10.50;7.70;;;12.90;99.90;;;;;;5082160;28;20176;-73
2020/12/16 10:18:42;;;;;;;8.50;6.63;;;13.00;99.90;;;;;;5080751;28;20641;-73
2020/12/16 10:21:08;;;;;;;7.43;6.67;;;13.00;99.90;;;;;;5080480;28;20214;-73
2020/12/16 10:23:33;;;;;;;11.33;7.90;;;13.10;99.90;;;;;;5082169;28;20180;-73
2020/12/16 10:25:59;;;;;;;9.30;8.40;;;13.00;99.90;;;;;;5078174;28;20613;-73
2020/12/16 10:28:24;;;;;;;7.27;6.17;;;13.30;99.90;;;;;;5083304;28;20200;-73
2020/12/16 10:30:50;;;;;;;12.30;7.37;;;13.20;99.90;;;;;;5079902;28;20231;-73
2020/12/16 10:33:16;;;;;;;10.67;8.03;;;13.20;99.90;;;;;;5081018;28;20230;-73
2020/12/16 10:35:43;;;;;;;8.23;7.43;;;13.20;99.90;;;;;;5080791;28;20786;-74
2020/12/16 10:38:09;;;;;;;8.03;7.23;;;13.10;99.90;;;;;;5081059;28;20415;-73
2020/12/16 10:40:35;;;;;;;9.73;8.70;;;13.10;99.90;;;;;;5082309;28;20438;-74
2020/12/16 10:43:04;;;;;;;12.13;7.50;;;13.20;99.90;;;;;;5082193;28;20830;-73
2020/12/16 10:45:30;;;;;;;13.27;7.80;;;13.30;99.90;;;;;;5086528;28;20182;-72
2020/12/16 10:47:59;;;;;;;8.57;7.40;;;13.40;99.90;;;;;;5078985;28;20999;-73
2020/12/16 10:50:32;;;;;;;14.00;8.20;;;13.30;99.90;;;;;;5079220;28;20212;-73
2020/12/16 10:52:59;;;;;;;12.40;8.63;;;13.20;99.90;;;;;;5078767;28;20458;-73
2020/12/16 10:55:25;;;;;;;11.60;8.53;;;13.10;99.90;;;;;;5082520;28;20786;-74
2020/12/16 10:57:52;;;;;;;9.73;7.83;;;12.90;99.90;;;;;;5079299;28;20410;-73
2020/12/16 11:00:18;;;;;;;11.37;8.73;;;12.90;99.90;;;;;;5081494;28;20462;-73
2020/12/16 11:02:44;;;;;;;11.60;8.00;;;13.10;99.90;;;;;;5079984;28;20942;-74
2020/12/16 11:05:09;;;;;;;12.03;7.63;;;13.10;99.90;;;;;;5080412;28;20423;-73
2020/12/16 11:07:35;;;;;;;13.97;8.50;;;13.10;99.90;;;;;;5081400;28;20174;-74
2020/12/16 11:10:00;;;;;;;13.60;8.97;;;13.00;99.90;;;;;;5079010;28;20223;-73
2020/12/16 11:12:26;;;;;;;15.77;9.87;;;13.10;99.90;;;;;;5082269;28;20183;-74
2020/12/16 11:14:52;;;;;;;19.93;9.43;;;13.00;99.90;;;;;;5078817;28;20189;-74
2020/12/16 11:17:17;;;;;;;11.03;8.37;;;13.00;99.90;;;;;;5081426;28;20581;-74
2020/12/16 11:19:43;;;;;;;15.67;8.40;;;13.10;99.90;;;;;;5080110;28;20180;-75
2020/12/16 11:22:09;;;;;;;10.30;8.97;;;13.00;99.90;;;;;;5079792;28;20717;-74
2020/12/16 11:24:34;;;;;;;10.40;7.90;;;13.10;99.90;;;;;;5081405;28;20169;-74
2020/12/16 11:27:00;;;;;;;11.17;9.13;;;13.10;99.90;;;;;;5079062;28;20207;-74
2020/12/16 11:29:26;;;;;;;10.20;8.10;;;13.00;99.90;;;;;;5082420;28;20291;-74
2020/12/16 11:31:57;;;;;;;9.70;8.70;;;13.10;99.90;;;;;;5079013;28;20510;-74
2020/12/16 11:34:25;;;;;;;14.80;9.17;;;13.00;99.90;;;;;;5082170;28;20387;-74
2020/12/16 11:36:53;;;;;;;12.57;9.70;;;12.90;99.90;;;;;;5082125;28;20422;-75
2020/12/16 11:39:19;;;;;;;13.53;9.27;;;12.90;99.90;;;;;;5079291;28;20421;-74
2020/12/16 11:41:49;;;;;;;15.20;10.30;;;12.70;99.90;;;;;;5080430;28;20784;-74
2020/12/16 11:44:19;;;;;;;11.87;8.83;;;12.80;99.90;;;;;;5078439;28;20418;-74
2020/12/16 11:46:46;;;;;;;11.20;8.93;;;12.90;99.90;;;;;;5080686;28;20430;-74
2020/12/16 11:49:14;;;;;;;18.00;10.17;;;12.90;99.90;;;;;;5080168;28;20457;-74
2020/12/16 11:51:40;;;;;;;15.40;10.10;;;12.90;99.90;;;;;;5079475;28;20549;-74
2020/12/16 11:54:06;;;;;;;13.20;10.67;;;12.80;99.90;;;;;;5084464;28;20508;-74
2020/12/16 11:56:32;;;;;;;12.53;8.97;;;12.80;99.90;;;;;;5082566;28;20176;-73
2020/12/16 11:58:58;;;;;;;14.57;10.13;;;12.70;99.90;;;;;;5085538;28;20529;-74
2020/12/16 12:01:23;;;;;;;11.67;10.47;;;12.70;99.90;;;;;;5082012;28;20499;-74
2020/12/16 12:03:49;;;;;;;11.23;9.87;;;12.70;99.90;;;;;;5084382;28;20614;-74
2020/12/16 12:06:15;;;;;;;12.93;10.73;;;12.50;99.90;;;;;;5083442;28;20183;-74
2020/12/16 12:08:41;;;;;;;11.37;9.93;;;12.40;99.90;;;;;;5084368;28;20238;-74
2020/12/16 12:11:14;;;;;;;15.07;10.10;;;12.30;99.90;;;;;;5082932;28;20832;-75
2020/12/16 12:13:40;;;;;;;11.87;10.40;;;12.40;99.90;;;;;;5083013;28;20414;-74
2020/12/16 12:16:07;;;;;;;13.30;10.13;;;12.30;99.90;;;;;;5084631;28;20921;-74
2020/12/16 12:18:33;;;;;;;18.93;11.03;;;12.30;99.90;;;;;;5081858;28;21225;-74
2020/12/16 12:20:58;;;;;;;14.93;10.90;;;12.20;99.90;;;;;;5085076;28;20454;-74
2020/12/16 12:23:24;;;;;;;11.70;9.13;;;12.20;99.90;;;;;;5081642;28;20172;-74
2020/12/16 12:25:49;;;;;;;14.60;10.50;;;12.30;99.90;;;;;;5084353;28;20184;-74
2020/12/16 12:28:15;;;;;;;17.30;11.60;;;12.20;99.90;;;;;;5082665;28;20200;-74
2020/12/16 12:30:40;;;;;;;15.30;10.23;;;12.10;99.90;;;;;;5082702;28;20549;-74
2020/12/16 12:33:06;;;;;;;14.17;10.33;;;12.10;99.90;;;;;;5084028;28;20179;-74
2020/12/16 12:35:31;;;;;;;15.47;10.87;;;12.00;99.90;;;;;;5080192;28;20207;-74
2020/12/16 12:37:57;;;;;;;18.50;10.50;;;12.00;99.90;;;;;;5084676;28;20180;-74
2020/12/16 12:40:22;;;;;;;17.93;11.27;;;11.90;99.90;;;;;;5081475;28;20622;-74
2020/12/16 12:42:48;;;;;;;14.43;10.13;;;12.00;99.90;;;;;;5083573;28;20180;-74
2020/12/16 12:45:14;;;;;;;14.43;9.80;;;12.00;99.90;;;;;;5082620;28;20265;-74
2020/12/16 12:47:39;;;;;;;17.83;11.30;;;12.10;99.90;;;;;;5082437;28;20181;-75
2020/12/16 12:50:05;;;;;;;14.77;10.70;;;12.10;99.90;;;;;;5083936;28;20203;-74